Time;durP1;ratioP1;P1;durP2;ratioP2;P2;SDS_P1;SDS_P2;PMS_P1;PMS_P2;Temp;Humidity;BMP_temperature;BMP_pressure;BME280_temperature;BME280_humidity;BME280_pressure;Samples;Min_cycle;Max_cycle;Signal;HPM_P1;HPM_P2
2023/04/01 00:02:23;;;;;;;3.73;1.37;;;;;;;;;;5040708;28;20180;-76
2023/04/01 00:04:49;;;;;;;2.83;1.20;;;;;;;;;;5076507;28;20182;-76
2023/04/01 00:07:14;;;;;;;5.90;1.50;;;;;;;;;;5056110;28;20176;-76
2023/04/01 00:09:45;;;;;;;2.47;0.80;;;;;;;;;;5077048;28;20183;-76
2023/04/01 00:12:11;;;;;;;4.97;1.37;;;;;;;;;;5049790;28;20213;-76
2023/04/01 00:14:36;;;;;;;2.73;1.20;;;;;;;;;;5076716;28;20183;-76
2023/04/01 00:17:02;;;;;;;3.00;1.30;;;;;;;;;;5067940;28;20176;-76
2023/04/01 00:19:27;;;;;;;3.53;1.30;;;;;;;;;;5048775;28;20174;-76
2023/04/01 00:21:53;;;;;;;4.33;1.23;;;;;;;;;;5053397;28;20187;-76
2023/04/01 00:24:18;;;;;;;3.40;1.20;;;;;;;;;;5042627;28;20258;-76
2023/04/01 00:26:44;;;;;;;1.17;1.07;;;;;;;;;;5076946;28;20174;-76
2023/04/01 00:29:09;;;;;;;1.70;1.30;;;;;;;;;;5047943;28;20273;-76
2023/04/01 00:31:34;;;;;;;2.77;1.20;;;;;;;;;;5075247;28;20236;-76
2023/04/01 00:34:00;;;;;;;4.33;1.30;;;;;;;;;;5040678;28;20174;-76
2023/04/01 00:36:25;;;;;;;2.37;1.13;;;;;;;;;;5051641;28;20217;-76
2023/04/01 00:38:51;;;;;;;0.87;0.87;;;;;;;;;;5043692;28;20175;-76
2023/04/01 00:41:17;;;;;;;1.70;1.23;;;;;;;;;;5073026;28;20182;-76
2023/04/01 00:43:43;;;;;;;2.53;0.83;;;;;;;;;;5048950;28;20202;-76
2023/04/01 00:46:09;;;;;;;1.27;1.03;;;;;;;;;;5046629;28;20222;-76
2023/04/01 00:48:36;;;;;;;1.87;1.50;;;;;;;;;;5063826;28;20254;-76
2023/04/01 00:51:06;;;;;;;1.50;1.00;;;;;;;;;;5044565;28;20197;-76
2023/04/01 00:53:32;;;;;;;1.07;0.87;;;;;;;;;;5050252;28;20179;-76
2023/04/01 00:56:02;;;;;;;0.87;0.70;;;;;;;;;;5049591;28;20214;-76
2023/04/01 00:58:30;;;;;;;2.27;1.20;;;;;;;;;;5043795;28;20348;-76
2023/04/01 01:00:58;;;;;;;1.50;1.40;;;;;;;;;;5037606;28;20178;-76
2023/04/01 01:03:23;;;;;;;1.67;0.97;;;;;;;;;;5045248;28;20188;-76
2023/04/01 01:06:10;;;;;;;0.87;0.73;;;;;;;;;;5061174;28;20179;-76
2023/04/01 01:08:37;;;;;;;2.00;1.10;;;;;;;;;;5053339;28;20190;-76
2023/04/01 01:11:04;;;;;;;2.40;1.03;;;;;;;;;;5068141;28;20211;-76
2023/04/01 01:13:34;;;;;;;2.63;1.10;;;;;;;;;;5041802;28;20232;-76
2023/04/01 01:16:15;;;;;;;2.47;1.03;;;;;;;;;;5042558;28;20186;-76
2023/04/01 01:18:54;;;;;;;1.67;1.10;;;;;;;;;;5049286;28;20182;-76
2023/04/01 01:21:38;;;;;;;2.23;1.10;;;;;;;;;;5040144;28;20182;-76
2023/04/01 01:24:10;;;;;;;3.80;1.10;;;;;;;;;;5047426;28;20243;-76
2023/04/01 01:26:48;;;;;;;2.77;0.90;;;;;;;;;;5034668;28;20265;-76
2023/04/01 01:29:25;;;;;;;1.67;0.83;;;;;;;;;;5047472;28;20193;-76
2023/04/01 01:32:03;;;;;;;2.67;0.80;;;;;;;;;;5073087;28;20194;-76
2023/04/01 01:34:48;;;;;;;2.33;0.80;;;;;;;;;;5072004;28;20179;-76
2023/04/01 01:37:17;;;;;;;1.60;0.80;;;;;;;;;;5041876;28;20196;-76
2023/04/01 01:39:43;;;;;;;2.00;0.70;;;;;;;;;;5051774;28;20183;-76
2023/04/01 01:42:10;;;;;;;2.30;0.83;;;;;;;;;;5041854;28;20203;-76
2023/04/01 01:44:36;;;;;;;2.20;0.83;;;;;;;;;;5076102;28;20186;-76
2023/04/01 01:47:02;;;;;;;1.03;0.70;;;;;;;;;;5042641;28;20187;-76
2023/04/01 01:49:30;;;;;;;1.13;0.77;;;;;;;;;;5044969;28;20239;-76
2023/04/01 01:51:55;;;;;;;1.37;1.10;;;;;;;;;;5055341;28;20230;-76
2023/04/01 01:54:23;;;;;;;1.33;1.07;;;;;;;;;;5077014;28;20198;-76
2023/04/01 01:56:51;;;;;;;2.13;0.87;;;;;;;;;;5044410;28;20182;-76
2023/04/01 01:59:17;;;;;;;1.10;0.90;;;;;;;;;;5043419;28;20177;-76
2023/04/01 02:01:45;;;;;;;0.77;0.70;;;;;;;;;;5056589;28;20185;-76
2023/04/01 02:04:10;;;;;;;0.83;0.70;;;;;;;;;;5043432;28;20201;-76
2023/04/01 02:06:38;;;;;;;2.60;0.70;;;;;;;;;;5059422;28;20191;-76
2023/04/01 02:09:05;;;;;;;1.83;1.00;;;;;;;;;;5049075;28;20178;-76
2023/04/01 02:11:50;;;;;;;3.37;1.27;;;;;;;;;;5052677;28;20206;-76
2023/04/01 02:14:23;;;;;;;3.33;1.20;;;;;;;;;;5056472;28;20213;-76
2023/04/01 02:16:55;;;;;;;2.07;0.63;;;;;;;;;;5043013;28;20232;-76
2023/04/01 02:19:22;;;;;;;3.03;0.77;;;;;;;;;;5044146;28;20257;-76
2023/04/01 02:21:51;;;;;;;3.10;0.90;;;;;;;;;;5043972;28;20201;-76
2023/04/01 02:24:16;;;;;;;1.27;0.70;;;;;;;;;;5049799;28;20170;-76
2023/04/01 02:26:42;;;;;;;3.23;1.17;;;;;;;;;;5039288;28;20178;-76
2023/04/01 02:29:09;;;;;;;2.17;0.80;;;;;;;;;;5041468;28;20179;-76
2023/04/01 02:31:34;;;;;;;2.13;0.93;;;;;;;;;;5047028;28;20216;-76
2023/04/01 02:34:00;;;;;;;2.17;0.83;;;;;;;;;;5042546;28;20185;-76
2023/04/01 02:36:25;;;;;;;1.80;1.07;;;;;;;;;;5042714;28;20186;-76
2023/04/01 02:38:54;;;;;;;1.93;0.90;;;;;;;;;;5073539;28;20186;-76
2023/04/01 02:41:20;;;;;;;2.53;0.77;;;;;;;;;;5075269;28;20273;-76
2023/04/01 02:43:45;;;;;;;1.70;0.60;;;;;;;;;;5050694;28;20229;-76
2023/04/01 02:46:11;;;;;;;2.30;0.97;;;;;;;;;;5047583;28;20175;-76
2023/04/01 02:48:36;;;;;;;1.53;0.63;;;;;;;;;;5043510;28;20223;-76
2023/04/01 02:51:01;;;;;;;1.83;0.90;;;;;;;;;;5046001;28;20198;-76
2023/04/01 02:53:26;;;;;;;1.40;0.67;;;;;;;;;;5045189;28;20174;-76
2023/04/01 02:55:52;;;;;;;2.77;1.00;;;;;;;;;;5049493;28;20179;-76
2023/04/01 02:58:18;;;;;;;2.83;0.90;;;;;;;;;;5040284;28;20178;-76
2023/04/01 03:00:43;;;;;;;1.70;0.90;;;;;;;;;;5059397;28;20175;-76
2023/04/01 03:03:08;;;;;;;1.67;1.27;;;;;;;;;;5038040;28;20178;-76
2023/04/01 03:05:33;;;;;;;0.60;0.60;;;;;;;;;;5063355;28;20178;-76
2023/04/01 03:07:59;;;;;;;2.63;0.80;;;;;;;;;;5040681;28;20186;-76
2023/04/01 03:10:24;;;;;;;0.83;0.60;;;;;;;;;;5071448;28;20258;-76
2023/04/01 03:12:49;;;;;;;1.67;1.00;;;;;;;;;;5042557;28;20217;-76
2023/04/01 03:15:17;;;;;;;2.13;0.93;;;;;;;;;;5075243;28;20177;-76
2023/04/01 03:17:43;;;;;;;2.27;1.13;;;;;;;;;;5074673;28;20178;-76
2023/04/01 03:20:10;;;;;;;2.03;1.20;;;;;;;;;;5070173;28;20173;-76
2023/04/01 03:22:35;;;;;;;1.07;0.83;;;;;;;;;;5071842;28;20182;-76
2023/04/01 03:25:01;;;;;;;2.43;0.83;;;;;;;;;;5047593;28;20189;-76
2023/04/01 03:27:26;;;;;;;0.80;0.57;;;;;;;;;;5045467;28;20174;-76
2023/04/01 03:29:51;;;;;;;1.20;0.87;;;;;;;;;;5078785;28;20237;-76
2023/04/01 03:32:17;;;;;;;1.13;0.80;;;;;;;;;;5047573;28;20230;-76
2023/04/01 03:34:42;;;;;;;0.97;0.50;;;;;;;;;;5051214;28;20259;-76
2023/04/01 03:37:07;;;;;;;0.93;0.60;;;;;;;;;;5078735;28;20189;-76
2023/04/01 03:39:32;;;;;;;3.87;1.00;;;;;;;;;;5044740;28;20182;-76
2023/04/01 03:41:58;;;;;;;3.73;1.40;;;;;;;;;;5080165;28;20234;-76
2023/04/01 03:44:23;;;;;;;1.40;0.83;;;;;;;;;;5045525;28;20181;-76
2023/04/01 03:46:48;;;;;;;1.00;0.50;;;;;;;;;;5047126;28;20189;-76
2023/04/01 03:49:14;;;;;;;3.23;1.00;;;;;;;;;;5047454;28;20243;-76
2023/04/01 03:51:40;;;;;;;1.10;0.90;;;;;;;;;;5047084;28;20213;-76
2023/04/01 03:54:05;;;;;;;1.07;0.83;;;;;;;;;;5081452;28;20191;-76
2023/04/01 03:56:31;;;;;;;1.73;0.80;;;;;;;;;;5038322;28;20174;-76
2023/04/01 03:58:56;;;;;;;4.07;0.80;;;;;;;;;;5054322;28;20202;-76
2023/04/01 04:01:21;;;;;;;1.67;0.90;;;;;;;;;;5042671;28;20192;-76
2023/04/01 04:03:48;;;;;;;1.83;1.30;;;;;;;;;;5059367;28;20277;-76
2023/04/01 04:06:14;;;;;;;1.70;0.80;;;;;;;;;;5046597;28;20199;-76
2023/04/01 04:08:39;;;;;;;2.53;0.90;;;;;;;;;;5080342;28;20181;-76
2023/04/01 04:11:04;;;;;;;7.93;1.10;;;;;;;;;;5043204;28;20221;-76
2023/04/01 04:13:30;;;;;;;1.30;0.77;;;;;;;;;;5056557;28;20188;-76
2023/04/01 04:15:55;;;;;;;2.00;0.80;;;;;;;;;;5045024;28;20178;-76
2023/04/01 04:18:20;;;;;;;2.87;1.20;;;;;;;;;;5049001;28;20228;-76
2023/04/01 04:20:50;;;;;;;2.93;0.80;;;;;;;;;;5048074;28;20183;-76
2023/04/01 04:23:16;;;;;;;1.53;0.90;;;;;;;;;;5047896;28;20186;-76
2023/04/01 04:25:41;;;;;;;2.13;0.80;;;;;;;;;;5044284;28;20178;-76
2023/04/01 04:28:06;;;;;;;1.07;0.87;;;;;;;;;;5077724;28;20249;-76
2023/04/01 04:30:31;;;;;;;3.57;1.00;;;;;;;;;;5075840;28;20205;-76
2023/04/01 04:32:57;;;;;;;3.23;1.00;;;;;;;;;;5061976;28;20214;-76
2023/04/01 04:35:22;;;;;;;2.23;1.10;;;;;;;;;;5041410;28;20305;-76
2023/04/01 04:37:47;;;;;;;4.00;1.00;;;;;;;;;;5051401;28;20270;-76
2023/04/01 04:40:12;;;;;;;3.37;1.00;;;;;;;;;;5041772;28;20206;-76
2023/04/01 04:42:37;;;;;;;1.63;0.93;;;;;;;;;;5063418;28;20209;-76
2023/04/01 04:45:03;;;;;;;2.67;1.47;;;;;;;;;;5045718;28;20182;-76
2023/04/01 04:47:28;;;;;;;3.17;1.07;;;;;;;;;;5034665;28;20303;-76
2023/04/01 04:49:54;;;;;;;2.30;1.30;;;;;;;;;;5047575;28;20201;-76
2023/04/01 04:52:19;;;;;;;1.27;0.90;;;;;;;;;;5067940;28;20202;-76
2023/04/01 04:54:44;;;;;;;1.90;1.00;;;;;;;;;;5043583;28;20231;-76
2023/04/01 04:57:09;;;;;;;2.90;1.20;;;;;;;;;;5044870;28;20178;-76
2023/04/01 04:59:35;;;;;;;3.23;1.30;;;;;;;;;;5047848;28;20172;-76
2023/04/01 05:02:00;;;;;;;1.13;0.77;;;;;;;;;;5068949;28;20186;-76
2023/04/01 05:04:25;;;;;;;3.27;1.20;;;;;;;;;;5039210;28;20187;-76
2023/04/01 05:06:51;;;;;;;3.87;0.80;;;;;;;;;;5075501;28;20191;-76
2023/04/01 05:09:17;;;;;;;1.17;1.00;;;;;;;;;;5046962;28;20319;-76
2023/04/01 05:11:42;;;;;;;1.40;0.67;;;;;;;;;;5072600;28;20213;-76
2023/04/01 05:14:11;;;;;;;1.60;0.87;;;;;;;;;;5044551;28;20291;-76
2023/04/01 05:16:36;;;;;;;2.60;1.10;;;;;;;;;;5046668;28;20268;-76
2023/04/01 05:19:02;;;;;;;2.30;1.20;;;;;;;;;;5046983;28;20194;-76
2023/04/01 05:21:27;;;;;;;2.20;1.20;;;;;;;;;;5037169;28;20212;-76
2023/04/01 05:23:52;;;;;;;1.77;1.10;;;;;;;;;;5073206;28;20189;-76
2023/04/01 05:26:17;;;;;;;2.63;0.90;;;;;;;;;;5041628;28;20183;-76
2023/04/01 05:28:43;;;;;;;1.57;0.90;;;;;;;;;;5076344;28;20197;-76
2023/04/01 05:31:08;;;;;;;3.10;1.20;;;;;;;;;;5067817;28;20233;-76
2023/04/01 05:33:34;;;;;;;0.80;0.80;;;;;;;;;;5058886;28;20178;-76
2023/04/01 05:36:07;;;;;;;1.30;0.80;;;;;;;;;;5040142;28;20263;-76
2023/04/01 05:38:32;;;;;;;1.40;0.70;;;;;;;;;;5032698;28;20185;-76
2023/04/01 05:41:01;;;;;;;2.43;1.30;;;;;;;;;;5037668;28;20254;-76
2023/04/01 05:43:26;;;;;;;0.70;0.60;;;;;;;;;;5070300;28;20208;-76
2023/04/01 05:45:54;;;;;;;1.00;0.73;;;;;;;;;;5043931;28;20175;-76
2023/04/01 05:48:20;;;;;;;1.03;0.80;;;;;;;;;;5041233;28;20229;-76
2023/04/01 05:50:45;;;;;;;1.00;0.90;;;;;;;;;;5074624;28;20203;-76
2023/04/01 05:53:10;;;;;;;3.50;1.97;;;;;;;;;;5046025;28;20251;-76
2023/04/01 05:55:36;;;;;;;3.40;1.80;;;;;;;;;;5044192;28;20177;-76
2023/04/01 05:58:01;;;;;;;1.27;0.83;;;;;;;;;;5072794;28;20301;-76
2023/04/01 06:00:26;;;;;;;2.77;1.20;;;;;;;;;;5048861;28;20201;-76
2023/04/01 06:02:57;;;;;;;1.20;0.80;;;;;;;;;;5056638;28;20171;-76
2023/04/01 06:05:24;;;;;;;1.93;1.10;;;;;;;;;;5039470;28;20252;-76
2023/04/01 06:07:55;;;;;;;1.73;0.90;;;;;;;;;;5080600;28;20177;-76
2023/04/01 06:10:20;;;;;;;2.03;1.13;;;;;;;;;;5057933;28;20184;-76
2023/04/01 06:12:49;;;;;;;2.50;0.93;;;;;;;;;;5058536;28;20189;-76
2023/04/01 06:15:28;;;;;;;2.40;0.90;;;;;;;;;;5071746;28;20248;-76
2023/04/01 06:18:13;;;;;;;0.70;0.60;;;;;;;;;;5068913;28;20181;-76
2023/04/01 06:20:38;;;;;;;1.23;0.70;;;;;;;;;;5065966;28;20185;-76
2023/04/01 06:23:20;;;;;;;1.27;0.60;;;;;;;;;;5070938;28;20185;-76
2023/04/01 06:25:51;;;;;;;0.53;0.53;;;;;;;;;;5047328;28;20182;-76
2023/04/01 06:28:16;;;;;;;2.23;1.20;;;;;;;;;;5070735;28;20179;-76
2023/04/01 06:30:47;;;;;;;1.97;0.90;;;;;;;;;;5074806;28;20209;-76
2023/04/01 06:33:21;;;;;;;0.40;0.40;;;;;;;;;;5031630;28;20215;-76
2023/04/01 06:35:50;;;;;;;0.57;0.30;;;;;;;;;;5069064;28;20247;-76
2023/04/01 06:38:18;;;;;;;0.50;0.40;;;;;;;;;;5042482;28;20243;-76
2023/04/01 06:40:47;;;;;;;0.93;0.60;;;;;;;;;;5070074;28;20178;-76
2023/04/01 06:43:24;;;;;;;1.40;1.20;;;;;;;;;;5066180;28;20216;-76
2023/04/01 06:46:07;;;;;;;1.53;0.80;;;;;;;;;;5065749;28;20173;-76
2023/04/01 06:48:41;;;;;;;0.50;0.50;;;;;;;;;;5062699;28;20230;-76
2023/04/01 06:51:16;;;;;;;1.03;0.60;;;;;;;;;;5037345;28;20194;-76
2023/04/01 06:54:01;;;;;;;1.10;0.50;;;;;;;;;;5059301;28;20185;-76
2023/04/01 06:56:28;;;;;;;1.23;0.87;;;;;;;;;;5070264;28;20225;-76
2023/04/01 06:58:56;;;;;;;3.50;2.00;;;;;;;;;;5062425;28;20194;-76
2023/04/01 07:01:48;;;;;;;1.20;1.10;;;;;;;;;;5039965;28;20178;-76
2023/04/01 07:04:27;;;;;;;2.30;1.93;;;;;;;;;;5036424;28;20215;-76
2023/04/01 07:06:54;;;;;;;3.10;2.60;;;;;;;;;;5037577;28;20186;-76
2023/04/01 07:09:26;;;;;;;2.30;1.97;;;;;;;;;;5043639;28;20185;-76
2023/04/01 07:11:53;;;;;;;1.47;1.10;;;;;;;;;;5055081;28;20266;-76
2023/04/01 07:14:33;;;;;;;0.67;0.67;;;;;;;;;;5071503;28;20189;-76
2023/04/01 07:17:01;;;;;;;1.90;1.80;;;;;;;;;;5040608;28;20316;-76
2023/04/01 07:19:32;;;;;;;1.27;1.17;;;;;;;;;;5071620;28;20264;-76
2023/04/01 07:22:03;;;;;;;0.70;0.70;;;;;;;;;;5041371;28;20175;-76
2023/04/01 07:24:35;;;;;;;0.53;0.53;;;;;;;;;;5047336;28;20178;-76
2023/04/01 07:27:01;;;;;;;0.80;0.50;;;;;;;;;;5049523;28;20193;-76
2023/04/01 07:29:26;;;;;;;1.10;1.10;;;;;;;;;;5073792;28;20183;-76
2023/04/01 07:32:07;;;;;;;1.80;1.70;;;;;;;;;;5062033;28;20213;-76
2023/04/01 07:34:44;;;;;;;1.40;1.30;;;;;;;;;;5043093;28;20171;-76
2023/04/01 07:37:09;;;;;;;0.83;0.83;;;;;;;;;;5042276;28;20191;-76
2023/04/01 07:39:38;;;;;;;1.53;1.10;;;;;;;;;;5038794;28;20183;-76
2023/04/01 07:42:24;;;;;;;0.90;0.90;;;;;;;;;;5069929;28;20293;-76
2023/04/01 07:45:08;;;;;;;1.80;1.63;;;;;;;;;;5034054;28;20202;-76
2023/04/01 07:47:39;;;;;;;2.27;1.43;;;;;;;;;;5049671;28;20200;-76
2023/04/01 07:50:34;;;;;;;1.90;1.80;;;;;;;;;;5043706;28;20202;-76
2023/04/01 07:53:08;;;;;;;1.03;0.60;;;;;;;;;;5052211;28;20199;-76
2023/04/01 07:55:42;;;;;;;1.20;1.00;;;;;;;;;;5040923;28;20186;-76
2023/04/01 07:58:13;;;;;;;0.80;0.80;;;;;;;;;;5068403;28;20179;-76
2023/04/01 08:00:45;;;;;;;0.33;0.33;;;;;;;;;;5044884;28;20186;-76
2023/04/01 08:03:21;;;;;;;0.70;0.70;;;;;;;;;;5048315;28;20173;-76
2023/04/01 08:05:58;;;;;;;1.20;0.83;;;;;;;;;;5040021;28;20178;-76
2023/04/01 08:08:35;;;;;;;0.63;0.63;;;;;;;;;;5076788;28;20174;-76
2023/04/01 08:11:03;;;;;;;1.03;0.47;;;;;;;;;;5079409;28;20227;-76
2023/04/01 08:13:28;;;;;;;0.43;0.43;;;;;;;;;;5075021;28;20193;-76
2023/04/01 08:16:17;;;;;;;0.40;0.40;;;;;;;;;;5050133;28;20170;-76
2023/04/01 08:19:00;;;;;;;0.70;0.50;;;;;;;;;;5043596;28;20179;-76
2023/04/01 08:21:34;;;;;;;0.37;0.37;;;;;;;;;;5048600;28;20182;-76
2023/04/01 08:24:07;;;;;;;0.40;0.40;;;;;;;;;;5067842;28;20183;-76
2023/04/01 08:26:36;;;;;;;0.50;0.50;;;;;;;;;;5048609;28;20181;-76
2023/04/01 08:29:15;;;;;;;0.60;0.60;;;;;;;;;;5080601;28;20190;-76
2023/04/01 08:31:45;;;;;;;0.90;0.80;;;;;;;;;;5043787;28;20281;-76
2023/04/01 08:34:16;;;;;;;2.20;2.00;;;;;;;;;;5065341;28;20176;-76
2023/04/01 08:36:45;;;;;;;1.43;1.33;;;;;;;;;;5065974;28;20296;-76
2023/04/01 08:39:31;;;;;;;0.67;0.67;;;;;;;;;;5044529;28;20175;-76
2023/04/01 08:42:06;;;;;;;1.17;1.07;;;;;;;;;;5079039;28;20174;-76
2023/04/01 08:44:31;;;;;;;0.63;0.63;;;;;;;;;;5078722;28;20187;-76
2023/04/01 08:46:56;;;;;;;0.80;0.80;;;;;;;;;;5047707;28;20174;-76
2023/04/01 08:49:54;;;;;;;0.73;0.70;;;;;;;;;;5042170;28;20257;-76
2023/04/01 08:52:24;;;;;;;0.53;0.53;;;;;;;;;;5028188;28;20228;-76
2023/04/01 08:55:00;;;;;;;0.40;0.40;;;;;;;;;;5080167;28;20183;-76
2023/04/01 08:57:31;;;;;;;0.90;0.90;;;;;;;;;;5047119;28;20217;-76
2023/04/01 09:00:17;;;;;;;1.07;0.80;;;;;;;;;;5045509;28;20246;-76
2023/04/01 09:02:42;;;;;;;0.60;0.60;;;;;;;;;;5072396;28;20185;-76
2023/04/01 09:05:07;;;;;;;1.00;0.80;;;;;;;;;;5048951;28;20170;-76
2023/04/01 09:07:38;;;;;;;0.50;0.50;;;;;;;;;;5048897;28;20200;-76
2023/04/01 09:10:07;;;;;;;1.77;1.10;;;;;;;;;;5044018;28;20206;-76
2023/04/01 09:12:35;;;;;;;0.80;0.80;;;;;;;;;;5041573;28;20233;-76
2023/04/01 09:15:12;;;;;;;1.03;0.40;;;;;;;;;;5049590;28;20169;-76
2023/04/01 09:17:49;;;;;;;1.27;1.00;;;;;;;;;;5072172;28;20174;-76
2023/04/01 09:20:15;;;;;;;1.20;0.50;;;;;;;;;;5045528;28;20235;-76
2023/04/01 09:22:51;;;;;;;1.00;0.90;;;;;;;;;;5071451;28;20277;-76
2023/04/01 09:25:16;;;;;;;1.27;0.70;;;;;;;;;;5045030;28;20197;-76
2023/04/01 09:27:48;;;;;;;1.10;0.60;;;;;;;;;;5048947;28;20198;-76
2023/04/01 09:30:23;;;;;;;0.80;0.80;;;;;;;;;;5046414;28;20195;-76
2023/04/01 09:32:49;;;;;;;1.00;0.73;;;;;;;;;;5049386;28;20186;-76
2023/04/01 09:35:32;;;;;;;2.93;1.40;;;;;;;;;;5049393;28;20181;-76
2023/04/01 09:38:08;;;;;;;0.77;0.77;;;;;;;;;;5047247;28;20183;-76
2023/04/01 09:40:42;;;;;;;0.50;0.50;;;;;;;;;;5039069;28;20216;-76
2023/04/01 09:43:14;;;;;;;0.60;0.60;;;;;;;;;;5045339;28;20213;-76
2023/04/01 09:45:46;;;;;;;0.40;0.40;;;;;;;;;;5078535;28;20190;-76
2023/04/01 09:48:19;;;;;;;0.10;0.10;;;;;;;;;;5047298;28;20225;-76
2023/04/01 09:50:47;;;;;;;0.83;0.83;;;;;;;;;;5049610;28;20206;-76
2023/04/01 09:53:36;;;;;;;0.40;0.40;;;;;;;;;;5038465;28;20181;-76
2023/04/01 09:56:13;;;;;;;0.10;0.10;;;;;;;;;;5060326;28;20170;-76
2023/04/01 09:58:41;;;;;;;0.30;0.30;;;;;;;;;;5048062;28;20185;-76
2023/04/01 10:01:12;;;;;;;0.10;0.10;;;;;;;;;;5048705;28;20175;-76
2023/04/01 10:03:40;;;;;;;0.10;0.10;;;;;;;;;;5042280;28;20187;-76
2023/04/01 10:06:20;;;;;;;0.30;0.30;;;;;;;;;;5049102;28;20200;-76
2023/04/01 10:09:12;;;;;;;0.10;0.10;;;;;;;;;;5050524;28;20183;-76
2023/04/01 10:11:59;;;;;;;0.30;0.20;;;;;;;;;;5072605;28;20378;-76
2023/04/01 10:14:34;;;;;;;0.20;0.20;;;;;;;;;;5043840;28;20176;-76
2023/04/01 10:17:08;;;;;;;0.50;0.50;;;;;;;;;;5045769;28;20181;-76
2023/04/01 10:19:44;;;;;;;0.20;0.20;;;;;;;;;;5051697;28;20192;-76
2023/04/01 10:22:28;;;;;;;0.60;0.60;;;;;;;;;;5045110;28;20179;-76
2023/04/01 10:25:08;;;;;;;0.20;0.20;;;;;;;;;;5045879;28;20186;-76
2023/04/01 10:27:49;;;;;;;0.50;0.50;;;;;;;;;;5074383;28;20170;-76
2023/04/01 10:30:20;;;;;;;0.57;0.57;;;;;;;;;;5071385;28;20181;-76
2023/04/01 10:32:53;;;;;;;0.10;0.10;;;;;;;;;;5043261;28;20266;-76
2023/04/01 10:35:25;;;;;;;0.30;0.30;;;;;;;;;;5046423;28;20168;-76
2023/04/01 10:37:53;;;;;;;0.13;0.13;;;;;;;;;;5076838;28;20270;-76
2023/04/01 10:40:36;;;;;;;0.33;0.30;;;;;;;;;;5041461;28;20217;-76
2023/04/01 10:43:24;;;;;;;0.20;0.20;;;;;;;;;;5042050;28;20206;-76
2023/04/01 10:45:57;;;;;;;0.27;0.27;;;;;;;;;;5077765;28;20185;-76
2023/04/01 10:48:43;;;;;;;0.20;0.20;;;;;;;;;;5050267;28;20234;-76
2023/04/01 10:51:28;;;;;;;0.20;0.20;;;;;;;;;;5051967;28;20190;-76
2023/04/01 10:54:02;;;;;;;0.40;0.40;;;;;;;;;;5047206;28;20171;-76
2023/04/01 10:56:48;;;;;;;0.10;0.10;;;;;;;;;;5047153;28;20180;-76
2023/04/01 10:59:28;;;;;;;0.10;0.10;;;;;;;;;;5065453;28;20230;-76
2023/04/01 11:01:53;;;;;;;0.20;0.20;;;;;;;;;;5049295;28;20178;-76
2023/04/01 11:04:37;;;;;;;0.68;0.40;;;;;;;;;;5047619;28;20181;-76
2023/04/01 11:07:21;;;;;;;0.30;0.30;;;;;;;;;;5048530;28;20166;-76
2023/04/01 11:09:46;;;;;;;0.13;0.13;;;;;;;;;;5075047;28;20182;-76
2023/04/01 11:12:30;;;;;;;0.27;0.27;;;;;;;;;;5052158;28;20186;-76
2023/04/01 11:15:24;;;;;;;0.20;0.20;;;;;;;;;;5051388;28;20162;-76
2023/04/01 11:17:49;;;;;;;0.20;0.20;;;;;;;;;;5073926;28;20173;-77
2023/04/01 11:20:28;;;;;;;0.20;0.20;;;;;;;;;;5040602;28;20217;-76
2023/04/01 11:23:09;;;;;;;0.10;0.10;;;;;;;;;;5042615;28;20174;-76
2023/04/01 11:25:34;;;;;;;0.30;0.30;;;;;;;;;;5065436;28;20170;-76
2023/04/01 11:27:59;;;;;;;0.30;0.17;;;;;;;;;;5050017;28;20186;-76
2023/04/01 11:30:33;;;;;;;0.40;0.40;;;;;;;;;;5046374;28;20234;-76
2023/04/01 11:33:07;;;;;;;0.10;0.10;;;;;;;;;;5080427;28;20167;-76
2023/04/01 11:35:53;;;;;;;0.10;0.10;;;;;;;;;;5047361;28;20178;-76
2023/04/01 11:38:33;;;;;;;0.30;0.30;;;;;;;;;;5043799;28;20186;-76
2023/04/01 11:41:11;;;;;;;0.37;0.20;;;;;;;;;;5077496;28;20181;-76
2023/04/01 11:43:55;;;;;;;0.23;0.23;;;;;;;;;;5080196;28;20206;-76
2023/04/01 11:46:41;;;;;;;1.80;0.70;;;;;;;;;;5050577;28;20177;-76
2023/04/01 11:49:25;;;;;;;2.23;1.70;;;;;;;;;;5047161;28;20225;-76
2023/04/01 11:51:57;;;;;;;0.43;0.43;;;;;;;;;;5047615;28;20203;-76
2023/04/01 11:54:41;;;;;;;0.73;0.73;;;;;;;;;;5048817;28;20180;-76
2023/04/01 11:57:18;;;;;;;0.47;0.47;;;;;;;;;;5047689;28;20174;-76
2023/04/01 11:59:56;;;;;;;0.30;0.20;;;;;;;;;;5041317;28;20162;-76
2023/04/01 12:02:21;;;;;;;0.20;0.20;;;;;;;;;;5043979;28;20174;-76
2023/04/01 12:05:06;;;;;;;0.10;0.10;;;;;;;;;;5077019;28;20197;-76
2023/04/01 12:07:45;;;;;;;0.30;0.10;;;;;;;;;;5043960;28;20174;-76
2023/04/01 12:10:10;;;;;;;0.30;0.30;;;;;;;;;;5061794;28;20193;-76
2023/04/01 12:12:48;;;;;;;0.40;0.20;;;;;;;;;;5048688;28;20193;-76
2023/04/01 12:15:13;;;;;;;0.10;0.10;;;;;;;;;;5047267;28;20218;-76
2023/04/01 12:17:42;;;;;;;0.20;0.20;;;;;;;;;;5048477;28;20167;-76
2023/04/01 12:20:13;;;;;;;0.20;0.20;;;;;;;;;;5050800;28;20182;-76
2023/04/01 12:22:44;;;;;;;0.20;0.20;;;;;;;;;;5042761;28;20180;-76
2023/04/01 12:25:28;;;;;;;1.23;0.20;;;;;;;;;;5049543;28;20261;-76
2023/04/01 12:28:02;;;;;;;0.10;0.10;;;;;;;;;;5044719;28;20172;-76
2023/04/01 12:30:27;;;;;;;0.30;0.30;;;;;;;;;;5045008;28;20170;-76
2023/04/01 12:33:05;;;;;;;0.50;0.50;;;;;;;;;;5082593;28;20185;-76
2023/04/01 12:35:30;;;;;;;0.70;0.70;;;;;;;;;;5048795;28;20192;-76
2023/04/01 12:37:55;;;;;;;0.70;0.70;;;;;;;;;;5049126;28;20261;-76
2023/04/01 12:40:30;;;;;;;0.20;0.20;;;;;;;;;;5039796;28;20211;-76
2023/04/01 12:43:01;;;;;;;0.40;0.40;;;;;;;;;;5048957;28;20203;-76
2023/04/01 12:45:30;;;;;;;0.23;0.23;;;;;;;;;;5072504;28;20245;-76
2023/04/01 12:48:15;;;;;;;0.40;0.40;;;;;;;;;;5044837;28;20226;-76
2023/04/01 12:50:58;;;;;;;0.30;0.30;;;;;;;;;;5080339;28;20178;-76
2023/04/01 12:53:39;;;;;;;0.27;0.27;;;;;;;;;;5042331;28;20280;-76
2023/04/01 12:56:09;;;;;;;0.63;0.40;;;;;;;;;;5049847;28;20173;-76
2023/04/01 12:58:53;;;;;;;0.30;0.30;;;;;;;;;;5042465;28;20219;-76
2023/04/01 13:01:19;;;;;;;0.33;0.30;;;;;;;;;;5044938;28;20192;-76
2023/04/01 13:04:08;;;;;;;6.30;2.87;;;;;;;;;;5049374;28;20182;-76
2023/04/01 13:06:52;;;;;;;3.47;1.93;;;;;;;;;;5048903;28;20178;-76
2023/04/01 13:09:36;;;;;;;1.13;0.73;;;;;;;;;;5045387;28;20277;-76
2023/04/01 13:12:16;;;;;;;1.90;1.63;;;;;;;;;;5043032;28;20367;-76
2023/04/01 13:14:41;;;;;;;1.03;0.93;;;;;;;;;;5049242;28;20186;-76
2023/04/01 13:17:25;;;;;;;0.80;0.60;;;;;;;;;;5071853;28;20235;-76
2023/04/01 13:19:57;;;;;;;1.93;1.00;;;;;;;;;;5050135;28;20180;-76
2023/04/01 13:22:43;;;;;;;1.67;1.57;;;;;;;;;;5048748;28;20273;-76
2023/04/01 13:25:41;;;;;;;0.60;0.60;;;;;;;;;;5046548;28;20182;-76
2023/04/01 13:28:12;;;;;;;0.63;0.63;;;;;;;;;;5031537;28;20217;-76
2023/04/01 13:30:56;;;;;;;1.20;1.10;;;;;;;;;;5052871;28;20249;-76
2023/04/01 13:33:36;;;;;;;1.70;1.53;;;;;;;;;;5069938;28;20175;-72
2023/04/01 13:36:04;;;;;;;0.50;0.50;;;;;;;;;;5045909;28;20181;-76
2023/04/01 13:38:58;;;;;;;1.33;1.23;;;;;;;;;;5048387;28;20185;-76
2023/04/01 13:41:32;;;;;;;0.60;0.60;;;;;;;;;;5046154;28;20202;-76
2023/04/01 13:43:57;;;;;;;1.00;0.90;;;;;;;;;;5046605;28;20229;-76
2023/04/01 13:46:39;;;;;;;1.40;1.30;;;;;;;;;;5047296;28;20207;-76
2023/04/01 13:49:27;;;;;;;0.43;0.43;;;;;;;;;;5042913;28;20264;-76
2023/04/01 13:51:52;;;;;;;0.70;0.70;;;;;;;;;;5073916;28;20210;-76
2023/04/01 13:54:20;;;;;;;0.70;0.70;;;;;;;;;;5047845;28;20166;-76
2023/04/01 13:57:01;;;;;;;0.20;0.20;;;;;;;;;;5048992;28;20178;-76
2023/04/01 13:59:55;;;;;;;0.40;0.40;;;;;;;;;;5071158;28;20183;-76
2023/04/01 14:02:38;;;;;;;0.40;0.40;;;;;;;;;;5048611;28;20182;-76
2023/04/01 14:05:14;;;;;;;0.20;0.20;;;;;;;;;;5076522;28;20178;-76
2023/04/01 14:07:40;;;;;;;0.60;0.50;;;;;;;;;;5063731;28;20185;-76
2023/04/01 14:10:17;;;;;;;0.33;0.33;;;;;;;;;;5078606;28;20189;-76
2023/04/01 14:12:51;;;;;;;0.30;0.30;;;;;;;;;;5080506;28;20202;-76
2023/04/01 14:15:28;;;;;;;0.40;0.40;;;;;;;;;;5075985;28;20261;-76
2023/04/01 14:18:10;;;;;;;0.40;0.40;;;;;;;;;;5041547;28;20173;-76
2023/04/01 14:20:54;;;;;;;0.30;0.30;;;;;;;;;;5069726;28;20173;-76
2023/04/01 14:23:23;;;;;;;0.40;0.40;;;;;;;;;;5078749;28;20181;-76
2023/04/01 14:25:48;;;;;;;0.53;0.40;;;;;;;;;;5077843;28;20170;-76
2023/04/01 14:28:25;;;;;;;0.23;0.10;;;;;;;;;;5048213;28;20228;-76
2023/04/01 14:30:57;;;;;;;0.30;0.30;;;;;;;;;;5041011;28;20187;-76
2023/04/01 14:33:44;;;;;;;0.10;0.10;;;;;;;;;;5058933;28;20244;-76
2023/04/01 14:36:48;;;;;;;0.30;0.30;;;;;;;;;;5047634;28;20236;-76
2023/04/01 14:39:32;;;;;;;0.67;0.30;;;;;;;;;;4986681;28;20175;-76
2023/04/01 14:42:06;;;;;;;0.20;0.20;;;;;;;;;;4970291;28;20195;-76
2023/04/01 14:44:35;;;;;;;0.30;0.30;;;;;;;;;;4979405;28;20290;-76
2023/04/01 14:47:15;;;;;;;0.30;0.30;;;;;;;;;;4986047;28;20409;-76
2023/04/01 14:49:47;;;;;;;0.70;0.70;;;;;;;;;;4979366;28;20231;-76
2023/04/01 14:52:16;;;;;;;0.27;0.27;;;;;;;;;;4970168;28;20239;-76
2023/04/01 14:54:44;;;;;;;1.33;0.77;;;;;;;;;;4970640;28;20223;-76
2023/04/01 14:57:24;;;;;;;0.50;0.50;;;;;;;;;;4970573;28;20192;-76
2023/04/01 14:59:53;;;;;;;0.77;0.60;;;;;;;;;;4987218;28;20179;-76
2023/04/01 15:02:29;;;;;;;1.83;1.03;;;;;;;;;;4985110;28;20199;-76
2023/04/01 15:04:54;;;;;;;0.50;0.50;;;;;;;;;;4981745;28;20183;-76
2023/04/01 15:07:31;;;;;;;0.40;0.40;;;;;;;;;;4985791;28;20271;-76
2023/04/01 15:10:19;;;;;;;0.80;0.80;;;;;;;;;;5014642;28;20194;-76
2023/04/01 15:13:03;;;;;;;0.80;0.77;;;;;;;;;;5041993;28;20285;-76